createdAt,value
2022-11-16T00:01:08.106Z,82.47
2022-11-16T00:03:35.926Z,92.68
2022-11-16T00:06:05.550Z,108.53
2022-11-16T00:08:35.906Z,91.95
2022-11-16T00:11:19.118Z,89.78
2022-11-16T00:13:46.571Z,113.35
2022-11-16T00:16:16.707Z,102.22
2022-11-16T00:18:44.782Z,98.82
2022-11-16T00:21:12.298Z,116.47
2022-11-16T00:23:39.897Z,97.47
2022-11-16T00:26:09.920Z,102.88
2022-11-16T00:28:37.623Z,109.85
2022-11-16T00:31:07.017Z,91.00
2022-11-16T00:33:35.003Z,102.95
2022-11-16T00:36:11.869Z,96.47
2022-11-16T00:38:41.047Z,93.38
2022-11-16T00:41:09.850Z,101.43
2022-11-16T00:43:37.727Z,99.20
2022-11-16T00:46:05.775Z,87.22
2022-11-16T00:48:33.623Z,87.13
2022-11-16T00:51:01.545Z,91.25
2022-11-16T00:53:29.301Z,96.45
2022-11-16T00:55:56.927Z,110.72
2022-11-16T00:58:25.208Z,97.97
2022-11-16T01:01:08.196Z,103.75
2022-11-16T01:03:36.907Z,102.18
2022-11-16T01:06:06.987Z,91.75
2022-11-16T01:08:36.535Z,96.45
2022-11-16T01:11:23.837Z,108.78
2022-11-16T01:13:51.950Z,82.05
2022-11-16T01:16:21.942Z,78.82
2022-11-16T01:18:51.876Z,78.70
2022-11-16T01:21:20.416Z,78.13
2022-11-16T01:23:48.258Z,80.53
2022-11-16T01:26:15.796Z,80.45
2022-11-16T01:28:43.866Z,72.57
2022-11-16T01:31:12.651Z,82.75
2022-11-16T01:33:41.293Z,81.03
2022-11-16T01:36:15.835Z,81.00
2022-11-16T01:38:45.751Z,79.25
2022-11-16T01:41:16.759Z,87.50
2022-11-16T01:44:14.894Z,79.55
2022-11-16T01:46:51.934Z,73.45
2022-11-16T01:49:22.550Z,74.00
2022-11-16T01:51:57.412Z,83.28
2022-11-16T01:54:27.435Z,71.10
2022-11-16T01:57:06.990Z,88.85
2022-11-16T01:59:41.768Z,79.25
2022-11-16T02:02:16.503Z,76.78
2022-11-16T02:04:47.768Z,81.20
2022-11-16T02:08:11.040Z,80.90
2022-11-16T02:11:00.508Z,69.90
2022-11-16T02:13:51.685Z,75.28
2022-11-16T02:16:59.779Z,78.32
2022-11-16T02:19:51.031Z,77.75
2022-11-16T02:22:24.283Z,73.70
2022-11-16T02:25:11.751Z,67.15
2022-11-16T02:27:51.283Z,88.70
2022-11-16T02:30:20.293Z,69.57
2022-11-16T02:33:02.784Z,63.15
2022-11-16T02:35:52.445Z,68.15
2022-11-16T02:38:26.407Z,58.30
2022-11-16T02:41:12.639Z,65.82
2022-11-16T02:43:48.618Z,54.75
2022-11-16T02:46:22.759Z,60.63
2022-11-16T02:48:55.644Z,58.30
2022-11-16T02:51:26.513Z,61.92
2022-11-16T02:54:13.121Z,60.10
2022-11-16T02:56:56.053Z,62.60
2022-11-16T02:59:32.021Z,66.50
2022-11-16T03:01:59.789Z,62.25
2022-11-16T03:04:41.409Z,62.00
2022-11-16T03:07:13.822Z,61.20
2022-11-16T03:09:43.954Z,70.72
2022-11-16T03:12:16.007Z,59.22
2022-11-16T03:14:59.856Z,62.90
2022-11-16T03:17:38.004Z,67.85
2022-11-16T03:20:16.029Z,58.08
2022-11-16T03:22:50.854Z,55.72
2022-11-16T03:25:22.696Z,57.70
2022-11-16T03:28:35.487Z,59.70
2022-11-16T03:31:19.339Z,58.45
2022-11-16T03:33:52.542Z,58.42
2022-11-16T03:36:36.122Z,52.72
2022-11-16T03:39:15.681Z,54.67
2022-11-16T03:41:48.221Z,59.92
2022-11-16T03:44:18.078Z,53.13
2022-11-16T03:46:47.067Z,53.15
2022-11-16T03:49:16.180Z,55.58
2022-11-16T03:51:44.169Z,49.88
2022-11-16T03:54:12.309Z,49.65
2022-11-16T03:56:40.924Z,52.83
2022-11-16T03:59:10.805Z,49.65
2022-11-16T04:01:43.371Z,43.67
2022-11-16T04:07:19.361Z,47.22
2022-11-16T04:10:06.341Z,43.53
2022-11-16T04:12:52.454Z,44.80
2022-11-16T04:15:38.822Z,43.33
2022-11-16T04:18:28.898Z,43.40
2022-11-16T04:21:15.659Z,44.78
2022-11-16T04:24:02.918Z,52.42
2022-11-16T04:26:59.246Z,52.67
2022-11-16T04:29:26.882Z,52.08
2022-11-16T04:32:13.269Z,55.42
2022-11-16T04:34:59.481Z,52.47
2022-11-16T04:37:45.565Z,56.13
2022-11-16T04:40:13.951Z,49.25
2022-11-16T04:42:42.593Z,43.50
2022-11-16T04:45:29.132Z,42.13
2022-11-16T04:47:56.723Z,44.83
2022-11-16T04:50:29.863Z,46.58
2022-11-16T04:52:58.974Z,49.10
2022-11-16T04:55:26.838Z,47.55
2022-11-16T04:57:54.738Z,49.20
2022-11-16T05:00:23.202Z,49.80
2022-11-16T05:02:52.992Z,46.15
2022-11-16T05:05:23.408Z,45.55
2022-11-16T05:07:52.190Z,46.95
2022-11-16T05:10:25.287Z,47.80
2022-11-16T05:12:53.815Z,48.20
2022-11-16T05:15:22.239Z,67.88
2022-11-16T05:17:51.167Z,62.05
2022-11-16T05:20:41.010Z,48.22
2022-11-16T05:23:29.180Z,46.20
2022-11-16T05:26:00.193Z,42.42
2022-11-16T05:28:28.850Z,47.22
2022-11-16T05:30:56.415Z,50.15
2022-11-16T05:33:26.540Z,50.97
2022-11-16T05:35:54.101Z,53.85
2022-11-16T05:38:22.453Z,55.28
2022-11-16T05:40:54.035Z,54.45
2022-11-16T05:43:21.646Z,55.60
2022-11-16T05:46:09.592Z,58.65
2022-11-16T05:48:38.265Z,56.97
2022-11-16T05:51:09.078Z,71.55
2022-11-16T05:53:36.569Z,54.95
2022-11-16T05:56:05.340Z,63.85
2022-11-16T05:58:37.322Z,56.33
2022-11-16T06:01:06.335Z,64.95
2022-11-16T06:03:35.608Z,65.82
2022-11-16T06:06:04.889Z,58.60
2022-11-16T06:08:32.896Z,58.28
2022-11-16T06:11:07.162Z,80.57
2022-11-16T06:13:37.214Z,57.95
2022-11-16T06:16:05.636Z,63.13
2022-11-16T06:18:40.512Z,95.43
2022-11-16T06:21:11.533Z,94.43
2022-11-16T06:23:40.157Z,61.85
2022-11-16T06:26:08.489Z,69.18
2022-11-16T06:28:37.345Z,76.30
2022-11-16T06:31:06.067Z,71.45
2022-11-16T06:33:38.040Z,111.78
2022-11-16T06:36:09.955Z,83.05
2022-11-16T06:38:38.437Z,73.72
2022-11-16T06:41:06.149Z,64.55
2022-11-16T06:43:39.643Z,80.22
2022-11-16T06:46:07.595Z,83.45
2022-11-16T06:48:35.589Z,92.32
2022-11-16T06:51:07.343Z,73.30
2022-11-16T06:53:35.516Z,76.03
2022-11-16T06:56:05.561Z,78.50
2022-11-16T06:58:38.014Z,106.30
2022-11-16T07:01:11.675Z,80.03
2022-11-16T07:03:41.794Z,92.57
2022-11-16T07:06:11.947Z,106.63
2022-11-16T07:08:41.951Z,101.35
2022-11-16T07:11:11.496Z,123.63
2022-11-16T07:13:39.874Z,107.60
2022-11-16T07:16:11.773Z,110.32
2022-11-16T07:18:44.419Z,96.68
2022-11-16T07:21:16.107Z,92.40
2022-11-16T07:23:45.430Z,98.80
2022-11-16T07:26:17.902Z,96.97
2022-11-16T07:28:53.902Z,123.35
2022-11-16T07:31:23.539Z,127.53
2022-11-16T07:34:11.114Z,113.50
2022-11-16T07:36:47.215Z,96.93
2022-11-16T07:39:14.843Z,100.95
2022-11-16T07:41:44.275Z,103.47
2022-11-16T07:44:26.982Z,104.40
2022-11-16T07:47:20.724Z,109.05
2022-11-16T07:49:48.982Z,107.88
2022-11-16T07:52:19.727Z,123.30
2022-11-16T07:57:24.778Z,116.55
2022-11-16T07:59:54.311Z,106.30
2022-11-16T08:02:21.899Z,115.03
2022-11-16T08:04:51.167Z,125.82
2022-11-16T08:07:23.465Z,132.82
2022-11-16T08:09:54.889Z,101.38
2022-11-16T08:12:23.506Z,99.95
2022-11-16T08:14:51.046Z,90.78
2022-11-16T08:17:18.565Z,89.53
2022-11-16T08:19:46.232Z,102.60
2022-11-16T08:22:16.159Z,94.25
2022-11-16T08:24:45.366Z,97.57
2022-11-16T08:27:15.418Z,112.65
2022-11-16T08:29:44.619Z,103.35
2022-11-16T08:32:12.624Z,98.65
2022-11-16T08:34:40.281Z,106.53
2022-11-16T08:37:07.836Z,123.28
2022-11-16T08:39:44.749Z,92.15
2022-11-16T08:42:12.585Z,96.78
2022-11-16T08:44:44.594Z,104.00
2022-11-16T08:47:15.076Z,100.80
2022-11-16T08:49:49.648Z,91.15
2022-11-16T08:52:18.880Z,103.15
2022-11-16T08:54:47.338Z,108.28
2022-11-16T08:57:15.642Z,101.80
2022-11-16T08:59:47.667Z,99.80
2022-11-16T09:02:15.282Z,94.95
2022-11-16T09:04:43.836Z,90.75
2022-11-16T09:07:11.383Z,89.93
2022-11-16T09:09:39.155Z,93.82
2022-11-16T09:12:06.732Z,86.28
2022-11-16T09:14:34.250Z,83.00
2022-11-16T09:17:01.910Z,87.47
2022-11-16T09:19:29.389Z,94.30
2022-11-16T09:21:56.814Z,89.53
2022-11-16T09:24:24.337Z,92.15
2022-11-16T09:26:51.832Z,87.00
2022-11-16T09:29:19.415Z,80.93
2022-11-16T09:31:46.997Z,89.95
2022-11-16T09:34:14.661Z,84.72
2022-11-16T09:36:42.166Z,84.78
2022-11-16T09:39:30.770Z,86.15
2022-11-16T09:42:40.989Z,88.20
2022-11-16T09:45:27.399Z,85.75
2022-11-16T09:47:59.485Z,74.55
2022-11-16T09:50:39.312Z,85.32
2022-11-16T09:53:18.760Z,83.72
2022-11-16T09:55:52.016Z,84.63
2022-11-16T09:58:42.876Z,85.50
2022-11-16T10:01:32.159Z,89.75
2022-11-16T10:04:11.259Z,96.32
2022-11-16T10:06:48.598Z,94.45
2022-11-16T10:09:16.705Z,92.00
2022-11-16T10:11:55.166Z,96.00
2022-11-16T10:15:04.622Z,101.10
2022-11-16T10:18:06.639Z,98.75
2022-11-16T10:21:09.783Z,92.25
2022-11-16T10:23:58.450Z,96.03
2022-11-16T10:26:50.068Z,94.32
2022-11-16T10:29:28.268Z,86.45
2022-11-16T10:32:26.037Z,87.95
2022-11-16T10:35:12.034Z,106.40
2022-11-16T10:37:46.580Z,103.13
2022-11-16T10:40:25.071Z,106.80
2022-11-16T10:43:01.381Z,100.38
2022-11-16T10:45:35.197Z,114.57
2022-11-16T10:48:27.812Z,107.43
2022-11-16T10:50:55.935Z,106.45
2022-11-16T10:53:46.181Z,113.38
2022-11-16T10:56:20.884Z,105.18
2022-11-16T10:59:02.982Z,112.43
2022-11-16T11:01:39.949Z,118.53
2022-11-16T11:04:19.754Z,117.22
2022-11-16T11:06:51.532Z,105.38
2022-11-16T11:09:21.910Z,118.95
2022-11-16T11:12:37.898Z,102.18
2022-11-16T11:17:43.792Z,140.32
2022-11-16T11:20:17.534Z,135.07
2022-11-16T11:22:56.584Z,130.68
2022-11-16T11:25:32.741Z,122.35
2022-11-16T11:28:08.284Z,111.80
2022-11-16T11:30:36.334Z,134.05
2022-11-16T11:33:11.630Z,143.05
2022-11-16T11:35:42.198Z,132.82
2022-11-16T11:38:15.334Z,127.68
2022-11-16T11:40:57.710Z,124.70
2022-11-16T11:43:25.961Z,140.95
2022-11-16T11:46:11.621Z,125.13
2022-11-16T11:48:48.028Z,127.35
2022-11-16T11:51:40.554Z,126.63
2022-11-16T11:54:27.476Z,126.43
2022-11-16T11:56:55.151Z,114.88
2022-11-16T11:59:26.414Z,134.55
2022-11-16T12:02:07.566Z,117.60
2022-11-16T12:04:54.370Z,128.50
2022-11-16T12:07:59.988Z,104.05
2022-11-16T12:10:36.231Z,124.43
2022-11-16T12:13:45.297Z,110.35
2022-11-16T12:16:27.941Z,105.25
2022-11-16T12:19:04.399Z,104.22
2022-11-16T12:21:58.971Z,96.10
2022-11-16T12:25:17.270Z,97.75
2022-11-16T12:28:09.055Z,101.32
2022-11-16T12:31:10.200Z,87.60
2022-11-16T12:33:46.801Z,92.20
2022-11-16T12:36:54.166Z,87.95
2022-11-16T12:39:27.426Z,79.95
2022-11-16T12:42:10.969Z,67.63
2022-11-16T12:45:16.303Z,66.22
2022-11-16T12:48:04.162Z,62.10
2022-11-16T12:50:51.605Z,65.03
2022-11-16T12:53:28.006Z,63.30
2022-11-16T12:56:33.110Z,63.65
2022-11-16T12:59:31.660Z,63.83
2022-11-16T13:02:17.838Z,56.42
2022-11-16T13:04:51.486Z,55.17
2022-11-16T13:07:25.527Z,57.85
2022-11-16T13:10:01.063Z,53.15
2022-11-16T13:12:31.054Z,51.70
2022-11-16T13:15:01.934Z,49.63
2022-11-16T13:17:37.994Z,50.05
2022-11-16T13:20:46.287Z,46.80
2022-11-16T13:23:32.440Z,42.13
2022-11-16T13:26:31.617Z,43.08
2022-11-16T13:29:22.125Z,41.08
2022-11-16T13:31:58.917Z,38.85
2022-11-16T13:34:31.909Z,41.63
2022-11-16T13:37:00.691Z,41.72
2022-11-16T13:39:59.012Z,39.92
2022-11-16T13:42:27.182Z,37.55
2022-11-16T13:45:06.774Z,33.05
2022-11-16T13:47:35.556Z,37.47
2022-11-16T13:50:06.903Z,32.88
2022-11-16T13:55:43.839Z,29.30
2022-11-16T13:58:19.887Z,28.88
2022-11-16T14:00:59.070Z,28.45
2022-11-16T14:03:30.062Z,31.05
2022-11-16T14:05:57.579Z,28.52
2022-11-16T14:08:35.051Z,29.45
2022-11-16T14:11:03.200Z,29.90
2022-11-16T14:13:42.333Z,30.17
2022-11-16T14:16:21.877Z,30.48
2022-11-16T14:18:56.022Z,32.58
2022-11-16T14:22:10.397Z,34.10
2022-11-16T14:24:47.045Z,36.97
2022-11-16T14:27:39.451Z,33.58
2022-11-16T14:30:26.682Z,35.42
2022-11-16T14:32:56.329Z,32.58
2022-11-16T14:35:39.779Z,32.17
2022-11-16T14:38:28.938Z,32.78
2022-11-16T14:41:00.563Z,31.48
2022-11-16T14:43:49.749Z,32.92
2022-11-16T14:46:19.841Z,29.27
2022-11-16T14:48:48.108Z,31.42
2022-11-16T14:51:24.954Z,35.20
2022-11-16T14:53:57.093Z,32.90
2022-11-16T14:56:25.054Z,32.30
2022-11-16T14:59:01.438Z,34.08
2022-11-16T15:01:33.217Z,33.63
2022-11-16T15:04:04.083Z,35.92
2022-11-16T15:06:52.273Z,33.75
2022-11-16T15:09:28.322Z,34.70
2022-11-16T15:12:16.242Z,44.47
2022-11-16T15:15:06.873Z,47.30
2022-11-16T15:17:35.110Z,41.88
2022-11-16T15:20:13.982Z,39.20
2022-11-16T15:22:44.756Z,39.28
2022-11-16T15:25:27.282Z,39.63
2022-11-16T15:27:56.736Z,37.17
2022-11-16T15:30:30.995Z,36.63
2022-11-16T15:32:58.600Z,38.50
2022-11-16T15:35:31.905Z,36.83
2022-11-16T15:38:23.202Z,37.58
2022-11-16T15:41:10.460Z,36.40
2022-11-16T15:44:01.365Z,45.88
2022-11-16T15:46:32.957Z,39.95
2022-11-16T15:49:01.314Z,38.30
2022-11-16T15:51:31.736Z,35.92
2022-11-16T15:54:23.605Z,37.42
2022-11-16T15:56:54.978Z,34.40
2022-11-16T15:59:27.537Z,45.70
2022-11-16T16:01:55.708Z,41.25
2022-11-16T16:04:25.148Z,57.28
2022-11-16T16:06:52.691Z,49.95
2022-11-16T16:09:24.362Z,42.30
2022-11-16T16:11:54.368Z,40.58
2022-11-16T16:14:28.026Z,35.97
2022-11-16T16:17:00.512Z,42.90
2022-11-16T16:19:31.317Z,38.53
2022-11-16T16:22:01.039Z,36.22
2022-11-16T16:24:45.730Z,37.58
2022-11-16T16:27:16.478Z,38.47
2022-11-16T16:29:53.219Z,35.97
2022-11-16T16:32:30.975Z,34.60
2022-11-16T16:35:01.248Z,33.95
2022-11-16T16:37:31.332Z,36.53
2022-11-16T16:39:59.427Z,34.13
2022-11-16T16:42:27.181Z,32.42
2022-11-16T16:44:54.695Z,32.45
2022-11-16T16:47:22.634Z,31.70
2022-11-16T16:49:50.186Z,37.80
2022-11-16T16:52:17.872Z,30.35
2022-11-16T16:54:45.567Z,29.75
2022-11-16T16:57:14.951Z,30.10
2022-11-16T16:59:45.381Z,31.23
2022-11-16T17:02:15.566Z,32.85
2022-11-16T17:04:44.078Z,30.63
2022-11-16T17:07:12.000Z,28.05
2022-11-16T17:09:39.871Z,27.02
2022-11-16T17:12:07.449Z,29.00
2022-11-16T17:14:34.984Z,31.05
2022-11-16T17:17:03.166Z,31.65
2022-11-16T17:19:31.010Z,32.03
2022-11-16T17:21:59.380Z,33.70
2022-11-16T17:24:26.920Z,29.65
2022-11-16T17:26:57.610Z,31.33
2022-11-16T17:29:25.302Z,29.05
2022-11-16T17:31:53.085Z,28.27
2022-11-16T17:34:20.801Z,34.67
2022-11-16T17:36:48.485Z,39.63
2022-11-16T17:39:16.606Z,42.67
2022-11-16T17:41:44.306Z,41.90
2022-11-16T17:44:14.860Z,63.90
2022-11-16T17:46:44.790Z,35.58
2022-11-16T17:49:12.604Z,30.75
2022-11-16T17:51:40.351Z,35.65
2022-11-16T17:54:07.930Z,64.30
2022-11-16T17:56:35.808Z,114.55
2022-11-16T17:59:03.724Z,52.85
2022-11-16T18:01:33.203Z,38.35
2022-11-16T18:04:02.595Z,31.48
2022-11-16T18:06:32.009Z,30.67
2022-11-16T18:08:59.846Z,26.63
2022-11-16T18:11:28.209Z,25.23
2022-11-16T18:13:58.177Z,23.27
2022-11-16T18:16:28.120Z,21.80
2022-11-16T18:19:06.143Z,18.83
2022-11-16T18:21:41.505Z,20.45
2022-11-16T18:24:09.793Z,18.98
2022-11-16T18:26:38.650Z,17.20
2022-11-16T18:29:09.079Z,17.98
2022-11-16T18:31:36.754Z,18.35
2022-11-16T18:34:04.585Z,20.08
2022-11-16T18:36:32.106Z,16.73
2022-11-16T18:39:00.779Z,19.10
2022-11-16T18:41:30.166Z,18.52
2022-11-16T18:44:00.193Z,18.35
2022-11-16T18:46:32.828Z,19.40
2022-11-16T18:49:00.747Z,19.42
2022-11-16T18:51:30.494Z,18.60
2022-11-16T18:53:58.304Z,16.70
2022-11-16T18:56:26.914Z,55.75
2022-11-16T18:58:54.802Z,158.52
2022-11-16T19:01:24.601Z,205.27
2022-11-16T19:03:53.901Z,143.70
2022-11-16T19:06:23.130Z,41.47
2022-11-16T19:08:59.881Z,24.42
2022-11-16T19:11:28.561Z,25.65
2022-11-16T19:14:04.337Z,28.30
2022-11-16T19:16:32.157Z,20.25
2022-11-16T19:19:01.518Z,17.17
2022-11-16T19:21:29.913Z,19.23
2022-11-16T19:23:57.764Z,16.02
2022-11-16T19:26:27.262Z,18.08
2022-11-16T19:28:55.703Z,19.20
2022-11-16T19:31:30.353Z,18.77
2022-11-16T19:34:03.247Z,18.77
2022-11-16T19:36:32.746Z,75.57
2022-11-16T19:39:01.551Z,84.07
2022-11-16T19:41:29.565Z,94.38
2022-11-16T19:44:00.212Z,197.82
2022-11-16T19:46:30.480Z,143.25
2022-11-16T19:48:59.268Z,129.65
2022-11-16T19:51:29.193Z,97.90
2022-11-16T19:53:58.975Z,78.85
2022-11-16T19:56:27.015Z,41.42
2022-11-16T19:58:55.022Z,42.40
2022-11-16T20:01:28.990Z,33.22
2022-11-16T20:04:02.357Z,48.80
2022-11-16T20:06:32.333Z,46.83
2022-11-16T20:09:04.042Z,53.28
2022-11-16T20:11:36.317Z,37.83
2022-11-16T20:14:06.243Z,24.23
2022-11-16T20:16:39.037Z,23.33
2022-11-16T20:19:09.036Z,25.25
2022-11-16T20:21:39.777Z,37.00
2022-11-16T20:24:11.054Z,50.72
2022-11-16T20:26:45.255Z,25.75
2022-11-16T20:29:14.195Z,35.00
2022-11-16T20:31:45.035Z,46.65
2022-11-16T20:34:15.639Z,26.02
2022-11-16T20:36:46.099Z,20.70
2022-11-16T20:39:29.475Z,22.65
2022-11-16T20:41:57.143Z,22.20
2022-11-16T20:44:24.905Z,22.92
2022-11-16T20:46:52.913Z,24.25
2022-11-16T20:49:21.096Z,25.08
2022-11-16T20:51:50.353Z,24.80
2022-11-16T20:54:18.118Z,23.90
2022-11-16T20:56:45.876Z,25.33
2022-11-16T20:59:13.635Z,32.33
2022-11-16T21:01:44.833Z,29.35
2022-11-16T21:04:13.510Z,32.50
2022-11-16T21:06:41.234Z,34.10
2022-11-16T21:09:11.797Z,35.72
2022-11-16T21:11:57.579Z,34.03
2022-11-16T21:14:25.075Z,37.92
2022-11-16T21:16:52.569Z,40.53
2022-11-16T21:19:20.127Z,44.60
2022-11-16T21:21:47.667Z,45.70
2022-11-16T21:24:15.258Z,46.13
2022-11-16T21:26:42.969Z,54.25
2022-11-16T21:29:10.620Z,52.00
2022-11-16T21:31:38.204Z,51.33
2022-11-16T21:34:07.293Z,47.50
2022-11-16T21:36:36.137Z,54.00
2022-11-16T21:39:05.112Z,50.10
2022-11-16T21:41:32.581Z,49.75
2022-11-16T21:44:00.015Z,46.90
2022-11-16T21:46:28.021Z,49.20
2022-11-16T21:48:56.633Z,44.13
2022-11-16T21:51:29.357Z,44.80
2022-11-16T21:53:56.830Z,49.35
2022-11-16T21:56:25.877Z,52.03
2022-11-16T21:58:54.512Z,49.38
2022-11-16T22:01:23.506Z,45.50
2022-11-16T22:04:11.429Z,41.65
2022-11-16T22:06:57.521Z,54.70
2022-11-16T22:09:25.265Z,49.60
2022-11-16T22:11:52.756Z,52.97
2022-11-16T22:14:20.259Z,51.45
2022-11-16T22:16:47.800Z,50.15
2022-11-16T22:19:15.340Z,45.60
2022-11-16T22:21:42.767Z,47.40
2022-11-16T22:24:10.230Z,48.15
2022-11-16T22:26:38.184Z,48.15
2022-11-16T22:29:05.734Z,43.55
2022-11-16T22:31:33.311Z,46.72
2022-11-16T22:34:00.793Z,46.28
2022-11-16T22:36:28.258Z,47.47
2022-11-16T22:38:57.115Z,45.60
2022-11-16T22:41:24.571Z,44.45
2022-11-16T22:43:52.198Z,47.42
2022-11-16T22:46:19.753Z,49.70
2022-11-16T22:48:48.006Z,47.70
2022-11-16T22:51:23.032Z,45.33
2022-11-16T22:53:58.535Z,43.95
2022-11-16T22:56:27.099Z,45.38
2022-11-16T22:58:56.107Z,46.08
2022-11-16T23:01:24.240Z,45.38
2022-11-16T23:03:52.022Z,46.60
2022-11-16T23:06:19.535Z,44.90
2022-11-16T23:08:47.359Z,43.08
2022-11-16T23:11:38.544Z,40.78
2022-11-16T23:14:28.002Z,45.80
2022-11-16T23:16:55.593Z,45.88
2022-11-16T23:19:42.357Z,47.05
2022-11-16T23:22:34.350Z,45.17
2022-11-16T23:25:21.261Z,45.63
2022-11-16T23:28:14.906Z,43.05
2022-11-16T23:30:42.561Z,41.13
2022-11-16T23:33:10.555Z,44.67
2022-11-16T23:35:38.087Z,41.92
2022-11-16T23:38:07.138Z,37.58
2022-11-16T23:40:36.946Z,41.92
2022-11-16T23:43:24.259Z,42.03
2022-11-16T23:45:51.978Z,43.55
2022-11-16T23:48:19.941Z,49.42
2022-11-16T23:50:47.557Z,44.58
2022-11-16T23:53:15.102Z,48.63
2022-11-16T23:55:42.600Z,51.97
2022-11-16T23:58:13.533Z,51.30
